Lexington, Virginia
Current Conditions -  °F | °C
As of 1:35 AM on Wednesday 26 Nov 2014 (Local Time) from KHSP Reporting Station
Overcast Overcast  
Wind Chill: 32°   Ceiling: 10000
Heat Index: 39°   Visibility: 10mi
Dew Point: 20°   Wind: 9mph
Humidity: 47%   Direction: 80°E
Pressure: 30"   Gusts: NA
Location:  37.79°N, 79.44°W
Report Text: KHSP 260635Z AUTO 08008KT 10SM OVC100 04/M07 A3000 RMK AO2 T00371068
Loading
Personal Weather Stations






























Interactive Weather Map New forecast layout! Learn more

10-Day Weather Forecast

Advertisements
Track Severe Weather on mobile